createdAt,value
2022-11-05T00:00:08.421Z,99663.38
2022-11-05T00:03:30.046Z,99667.34
2022-11-05T00:06:51.684Z,99664.84
2022-11-05T00:10:18.190Z,99674.41
2022-11-05T00:13:39.704Z,99683.59
2022-11-05T00:16:45.345Z,99675.38
2022-11-05T00:19:47.871Z,99687.22
2022-11-05T00:23:09.451Z,99684.84
2022-11-05T00:26:13.184Z,99679.13
2022-11-05T00:29:15.895Z,99676.22
2022-11-05T00:32:18.338Z,99685.91
2022-11-05T00:35:22.656Z,99669.47
2022-11-05T00:38:30.011Z,99666.84
2022-11-05T00:41:32.708Z,99665.66
2022-11-05T00:44:53.473Z,99662.50
2022-11-05T00:48:15.504Z,99668.56
2022-11-05T00:51:18.000Z,99669.03
2022-11-05T00:54:20.701Z,99669.19
2022-11-05T00:57:23.094Z,99665.69
2022-11-05T01:00:28.874Z,99669.19
2022-11-05T01:03:34.828Z,99665.06
2022-11-05T01:06:37.640Z,99670.84
2022-11-05T01:09:40.203Z,99675.38
2022-11-05T01:12:42.961Z,99682.13
2022-11-05T01:15:46.392Z,99676.44
2022-11-05T01:18:49.102Z,99680.13
2022-11-05T01:21:51.657Z,99674.19
2022-11-05T01:24:54.367Z,99678.59
2022-11-05T01:27:56.825Z,99666.37
2022-11-05T01:30:59.560Z,99663.72
2022-11-05T01:34:02.157Z,99665.59
2022-11-05T01:37:05.003Z,99673.44
2022-11-05T01:40:12.477Z,99663.28
2022-11-05T01:43:21.428Z,99666.66
2022-11-05T01:46:28.514Z,99667.16
2022-11-05T01:49:34.645Z,99668.53
2022-11-05T01:52:37.097Z,99677.31
2022-11-05T01:55:53.647Z,99678.41
2022-11-05T01:59:03.984Z,99686.09
2022-11-05T02:02:07.917Z,99688.53
2022-11-05T02:05:12.274Z,99696.66
2022-11-05T02:08:29.164Z,99701.28
2022-11-05T02:11:32.817Z,99709.88
2022-11-05T02:14:35.625Z,99710.72
2022-11-05T02:18:04.519Z,99705.25
2022-11-05T02:21:30.427Z,99693.69
2022-11-05T02:24:35.854Z,99698.06
2022-11-05T02:28:12.567Z,99706.03
2022-11-05T02:31:25.549Z,99697.16
2022-11-05T02:34:37.845Z,99696.97
2022-11-05T02:37:51.433Z,99708.84
2022-11-05T02:41:09.627Z,99711.25
2022-11-05T02:44:32.019Z,99717.00
2022-11-05T02:47:47.581Z,99708.03
2022-11-05T02:50:58.170Z,99705.22
2022-11-05T02:54:22.541Z,99699.88
2022-11-05T02:57:24.978Z,99705.69
2022-11-05T03:00:43.702Z,99712.69
2022-11-05T03:03:48.490Z,99720.03
2022-11-05T03:07:09.989Z,99726.84
2022-11-05T03:10:29.301Z,99718.47
2022-11-05T03:13:55.849Z,99716.78
2022-11-05T03:17:12.758Z,99715.88
2022-11-05T03:20:28.193Z,99725.44
2022-11-05T03:23:54.405Z,99722.06
2022-11-05T03:27:02.468Z,99735.78
2022-11-05T03:30:11.391Z,99738.59
2022-11-05T03:33:19.421Z,99738.59
2022-11-05T03:36:44.942Z,99740.16
2022-11-05T03:39:52.152Z,99742.84
2022-11-05T03:42:58.310Z,99734.09
2022-11-05T03:46:06.189Z,99745.16
2022-11-05T03:49:14.021Z,99735.78
2022-11-05T03:52:19.684Z,99748.69
2022-11-05T03:55:30.384Z,99753.91
2022-11-05T03:58:34.610Z,99756.53
2022-11-05T04:01:38.950Z,99765.44
2022-11-05T04:04:41.770Z,99759.50
2022-11-05T04:08:03.492Z,99764.19
2022-11-05T04:11:27.847Z,99771.19
2022-11-05T04:14:30.927Z,99750.72
2022-11-05T04:17:33.617Z,99736.38
2022-11-05T04:20:55.106Z,99743.44
2022-11-05T04:24:09.886Z,99748.50
2022-11-05T04:27:12.305Z,99736.81
2022-11-05T04:30:20.036Z,99742.22
2022-11-05T04:33:22.474Z,99744.75
2022-11-05T04:36:25.496Z,99751.41
2022-11-05T04:39:27.948Z,99735.94
2022-11-05T04:42:30.740Z,99726.81
2022-11-05T04:45:34.857Z,99726.03
2022-11-05T04:48:38.131Z,99726.81
2022-11-05T04:51:40.619Z,99728.69
2022-11-05T04:54:43.549Z,99737.91
2022-11-05T04:57:53.712Z,99739.50
2022-11-05T05:00:56.391Z,99742.41
2022-11-05T05:03:58.829Z,99738.16
2022-11-05T05:07:01.588Z,99752.34
2022-11-05T05:10:05.874Z,99744.44
2022-11-05T05:13:11.741Z,99749.44
2022-11-05T05:16:22.052Z,99751.31
2022-11-05T05:19:25.475Z,99757.28
2022-11-05T05:22:28.244Z,99752.25
2022-11-05T05:25:31.181Z,99748.87
2022-11-05T05:28:33.641Z,99754.59
2022-11-05T05:31:37.542Z,99755.78
2022-11-05T05:34:40.142Z,99753.81
2022-11-05T05:37:43.205Z,99754.69
2022-11-05T05:40:46.118Z,99759.16
2022-11-05T05:43:49.350Z,99765.06
2022-11-05T05:46:53.994Z,99772.53
2022-11-05T05:49:56.647Z,99781.50
2022-11-05T05:52:59.126Z,99775.00
2022-11-05T05:56:02.262Z,99778.28
2022-11-05T05:59:06.051Z,99785.19
2022-11-05T06:02:08.995Z,99794.66
2022-11-05T06:05:11.808Z,99800.63
2022-11-05T06:08:14.282Z,99806.50
2022-11-05T06:11:17.018Z,99810.69
2022-11-05T06:14:19.427Z,99826.53
2022-11-05T06:17:22.110Z,99833.87
2022-11-05T06:20:24.547Z,99830.38
2022-11-05T06:23:27.371Z,99827.09
2022-11-05T06:26:29.931Z,99822.34
2022-11-05T06:29:32.690Z,99830.38
2022-11-05T06:32:35.344Z,99824.66
2022-11-05T06:35:38.066Z,99839.56
2022-11-05T06:38:40.554Z,99843.41
2022-11-05T06:42:16.642Z,99848.81
2022-11-05T06:45:07.700Z,99849.19
2022-11-05T06:48:10.370Z,99851.72
2022-11-05T06:51:13.084Z,99858.38
2022-11-05T06:54:15.837Z,99864.63
2022-11-05T06:57:18.323Z,99857.78
2022-11-05T07:00:21.336Z,99863.66
2022-11-05T07:03:24.184Z,99858.19
2022-11-05T07:06:27.532Z,99862.56
2022-11-05T07:09:30.373Z,99865.69
2022-11-05T07:12:33.570Z,99859.03
2022-11-05T07:15:37.212Z,99853.88
2022-11-05T07:18:40.035Z,99856.16
2022-11-05T07:21:42.683Z,99859.38
2022-11-05T07:24:47.245Z,99865.88
2022-11-05T07:27:49.686Z,99855.09
2022-11-05T07:30:52.398Z,99861.84
2022-11-05T07:33:54.998Z,99860.62
2022-11-05T07:36:57.673Z,99870.53
2022-11-05T07:40:00.131Z,99864.28
2022-11-05T07:43:02.980Z,99857.94
2022-11-05T07:46:07.587Z,99869.00
2022-11-05T07:49:14.117Z,99868.22
2022-11-05T07:52:16.628Z,99869.66
2022-11-05T07:55:20.586Z,99870.91
2022-11-05T07:58:23.033Z,99868.44
2022-11-05T08:01:25.916Z,99868.00
2022-11-05T08:04:28.805Z,99870.44
2022-11-05T08:07:31.250Z,99869.53
2022-11-05T08:10:34.784Z,99869.38
2022-11-05T08:13:37.519Z,99871.53
2022-11-05T08:16:40.198Z,99862.69
2022-11-05T08:19:42.827Z,99870.38
2022-11-05T08:22:46.203Z,99856.84
2022-11-05T08:25:48.589Z,99860.34
2022-11-05T08:28:51.407Z,99857.41
2022-11-05T08:31:53.795Z,99850.28
2022-11-05T08:34:56.507Z,99857.28
2022-11-05T08:38:02.834Z,99858.41
2022-11-05T08:41:05.759Z,99860.66
2022-11-05T08:44:08.803Z,99857.38
2022-11-05T08:47:11.580Z,99851.25
2022-11-05T08:50:16.884Z,99858.72
2022-11-05T08:53:20.250Z,99861.50
2022-11-05T08:56:23.406Z,99864.69
2022-11-05T08:59:26.149Z,99866.13
2022-11-05T09:02:28.903Z,99860.91
2022-11-05T09:05:41.011Z,99868.34
2022-11-05T09:08:43.672Z,99859.78
2022-11-05T09:12:10.422Z,99874.56
2022-11-05T09:15:11.337Z,99868.41
2022-11-05T09:18:14.956Z,99887.75
2022-11-05T09:21:18.874Z,99893.63
2022-11-05T09:24:21.583Z,99887.16
2022-11-05T09:27:24.035Z,99897.94
2022-11-05T09:30:27.188Z,99899.78
2022-11-05T09:33:29.683Z,99896.34
2022-11-05T09:36:32.356Z,99905.34
2022-11-05T09:39:34.825Z,99898.84
2022-11-05T09:42:42.434Z,99905.78
2022-11-05T09:45:49.098Z,99902.91
2022-11-05T09:48:57.397Z,99897.16
2022-11-05T09:52:01.204Z,99891.72
2022-11-05T09:55:07.105Z,99885.94
2022-11-05T09:58:28.662Z,99887.47
2022-11-05T10:01:36.344Z,99891.72
2022-11-05T10:04:39.900Z,99889.19
2022-11-05T10:07:48.656Z,99901.53
2022-11-05T10:11:10.442Z,99888.75
2022-11-05T10:14:24.384Z,99893.63
2022-11-05T10:17:28.758Z,99888.22
2022-11-05T10:20:36.808Z,99894.09
2022-11-05T10:23:39.661Z,99893.72
2022-11-05T10:26:43.340Z,99882.59
2022-11-05T10:29:48.185Z,99893.16
2022-11-05T10:32:56.401Z,99894.16
2022-11-05T10:36:01.634Z,99906.06
2022-11-05T10:39:10.972Z,99889.53
2022-11-05T10:42:38.545Z,99892.22
2022-11-05T10:46:15.580Z,99891.63
2022-11-05T10:49:27.881Z,99893.47
2022-11-05T10:52:36.800Z,99901.41
2022-11-05T10:55:46.086Z,99904.22
2022-11-05T10:58:57.629Z,99906.41
2022-11-05T11:02:03.293Z,99900.03
2022-11-05T11:05:06.175Z,99909.66
2022-11-05T11:08:08.777Z,99922.44
2022-11-05T11:11:24.701Z,99916.38
2022-11-05T11:14:28.625Z,99927.66
2022-11-05T11:17:32.573Z,99918.94
2022-11-05T11:20:44.303Z,99912.91
2022-11-05T11:24:00.825Z,99926.13
2022-11-05T11:27:08.421Z,99924.69
2022-11-05T11:30:17.952Z,99912.09
2022-11-05T11:33:26.435Z,99908.19
2022-11-05T11:36:36.160Z,99914.84
2022-11-05T11:39:39.504Z,99910.28
2022-11-05T11:42:46.782Z,99917.66
2022-11-05T11:45:53.169Z,99919.69
2022-11-05T11:48:55.653Z,99915.78
2022-11-05T11:52:10.637Z,99931.38
2022-11-05T11:55:18.505Z,99925.53
2022-11-05T11:58:23.954Z,99929.62
2022-11-05T12:02:11.360Z,99920.06
2022-11-05T12:05:29.737Z,99913.38
2022-11-05T12:08:45.400Z,99915.03
2022-11-05T12:12:05.180Z,99912.09
2022-11-05T12:15:45.407Z,99915.84
2022-11-05T12:19:13.462Z,99909.37
2022-11-05T12:22:44.939Z,99910.47
2022-11-05T12:26:28.540Z,99914.03
2022-11-05T12:30:04.464Z,99919.84
2022-11-05T12:33:16.556Z,99934.94
2022-11-05T12:36:57.061Z,99936.56
2022-11-05T12:40:40.161Z,99947.00
2022-11-05T12:44:00.793Z,99946.09
2022-11-05T12:47:33.550Z,99948.72
2022-11-05T12:50:47.993Z,99949.22
2022-11-05T12:54:13.869Z,99953.31
2022-11-05T12:57:17.830Z,99954.25
2022-11-05T13:00:23.437Z,99960.38
2022-11-05T13:03:37.038Z,99962.59
2022-11-05T13:06:42.772Z,99963.09
2022-11-05T13:09:56.660Z,99968.75
2022-11-05T13:13:22.730Z,99976.03
2022-11-05T13:16:38.522Z,99983.00
2022-11-05T13:19:51.476Z,99978.44
2022-11-05T13:23:07.203Z,99981.25
2022-11-05T13:26:42.252Z,99979.34
2022-11-05T13:29:52.632Z,99986.31
2022-11-05T13:33:02.287Z,99982.59
2022-11-05T13:36:30.720Z,99974.31
2022-11-05T13:39:57.530Z,99987.19
2022-11-05T13:43:27.324Z,99973.78
2022-11-05T13:46:48.915Z,99984.69
2022-11-05T13:50:12.285Z,99982.22
2022-11-05T13:53:41.055Z,99985.87
2022-11-05T13:57:14.733Z,99988.25
2022-11-05T14:00:29.973Z,99999.69
2022-11-05T14:03:33.288Z,99983.56
2022-11-05T14:06:36.827Z,99995.91
2022-11-05T14:09:41.630Z,100006.87
2022-11-05T14:12:49.714Z,99994.06
2022-11-05T14:16:07.460Z,99996.66
2022-11-05T14:19:19.083Z,100003.63
2022-11-05T14:22:31.043Z,100007.44
2022-11-05T14:25:36.665Z,100003.84
2022-11-05T14:28:43.108Z,100001.47
2022-11-05T14:32:08.423Z,100006.16
2022-11-05T14:35:15.304Z,100013.37
2022-11-05T14:38:23.984Z,100013.37
2022-11-05T14:41:27.305Z,100026.22
2022-11-05T14:44:35.255Z,100025.38
2022-11-05T14:47:43.103Z,100032.84
2022-11-05T14:50:47.057Z,100038.53
2022-11-05T14:54:06.648Z,100032.50
2022-11-05T14:57:14.216Z,100044.41
2022-11-05T15:00:29.485Z,100037.88
2022-11-05T15:03:47.055Z,100033.72
2022-11-05T15:07:02.616Z,100049.22
2022-11-05T15:10:11.961Z,100050.44
2022-11-05T15:13:35.531Z,100051.38
2022-11-05T15:16:49.800Z,100052.97
2022-11-05T15:19:53.973Z,100057.34
2022-11-05T15:23:03.256Z,100055.19
2022-11-05T15:26:26.344Z,100058.91
2022-11-05T15:29:31.644Z,100058.19
2022-11-05T15:32:38.424Z,100061.63
2022-11-05T15:35:42.248Z,100065.88
2022-11-05T15:39:02.051Z,100059.97
2022-11-05T15:42:16.586Z,100070.72
2022-11-05T15:45:20.945Z,100076.09
2022-11-05T15:48:24.962Z,100078.44
2022-11-05T15:51:29.646Z,100078.03
2022-11-05T15:54:32.598Z,100080.56
2022-11-05T15:57:40.470Z,100082.69
2022-11-05T16:00:48.405Z,100085.19
2022-11-05T16:03:53.093Z,100084.00
2022-11-05T16:07:01.649Z,100086.88
2022-11-05T16:10:10.048Z,100096.19
2022-11-05T16:13:41.283Z,100096.25
2022-11-05T16:16:46.583Z,100104.47
2022-11-05T16:19:49.907Z,100105.59
2022-11-05T16:22:56.219Z,100109.34
2022-11-05T16:26:00.337Z,100115.66
2022-11-05T16:29:17.962Z,100120.12
2022-11-05T16:32:31.206Z,100121.97
2022-11-05T16:35:40.136Z,100124.66
2022-11-05T16:38:42.922Z,100123.81
2022-11-05T16:41:46.117Z,100126.84
2022-11-05T16:44:54.927Z,100125.19
2022-11-05T16:47:58.286Z,100134.72
2022-11-05T16:51:02.061Z,100138.19
2022-11-05T16:54:05.558Z,100138.47
2022-11-05T16:57:21.447Z,100142.06
2022-11-05T17:00:26.361Z,100146.09
2022-11-05T17:03:29.486Z,100143.50
2022-11-05T17:06:33.902Z,100150.06
2022-11-05T17:09:36.593Z,100157.31
2022-11-05T17:12:39.719Z,100157.78
2022-11-05T17:15:45.327Z,100163.84
2022-11-05T17:18:48.323Z,100166.91
2022-11-05T17:21:51.045Z,100171.50
2022-11-05T17:24:54.042Z,100173.31
2022-11-05T17:27:57.967Z,100175.56
2022-11-05T17:31:02.977Z,100172.03
2022-11-05T17:34:07.044Z,100178.88
2022-11-05T17:37:09.977Z,100187.41
2022-11-05T17:40:15.885Z,100185.69
2022-11-05T17:43:20.237Z,100189.34
2022-11-05T17:46:24.013Z,100193.69
2022-11-05T17:49:27.318Z,100200.47
2022-11-05T17:52:30.016Z,100202.31
2022-11-05T17:55:33.945Z,100199.56
2022-11-05T17:58:39.454Z,100211.62
2022-11-05T18:01:43.752Z,100205.53
2022-11-05T18:04:46.921Z,100207.53
2022-11-05T18:07:50.426Z,100211.16
2022-11-05T18:10:53.808Z,100210.97
2022-11-05T18:13:57.143Z,100205.12
2022-11-05T18:17:01.355Z,100215.31
2022-11-05T18:20:11.692Z,100216.81
2022-11-05T18:23:18.478Z,100220.69
2022-11-05T18:26:21.183Z,100229.44
2022-11-05T18:29:24.556Z,100224.91
2022-11-05T18:32:27.753Z,100233.28
2022-11-05T18:35:31.174Z,100238.06
2022-11-05T18:38:33.930Z,100245.13
2022-11-05T18:41:37.037Z,100249.41
2022-11-05T18:44:40.168Z,100256.09
2022-11-05T18:47:43.238Z,100250.87
2022-11-05T18:50:45.896Z,100259.19
2022-11-05T18:53:50.157Z,100263.63
2022-11-05T18:56:53.039Z,100271.47
2022-11-05T18:59:56.423Z,100281.84
2022-11-05T19:02:59.375Z,100278.31
2022-11-05T19:06:03.789Z,100286.75
2022-11-05T19:09:09.761Z,100293.25
2022-11-05T19:12:13.350Z,100287.34
2022-11-05T19:15:16.807Z,100288.91
2022-11-05T19:18:20.707Z,100297.72
2022-11-05T19:21:25.184Z,100298.19
2022-11-05T19:24:28.299Z,100292.44
2022-11-05T19:27:30.966Z,100306.16
2022-11-05T19:30:35.093Z,100305.31
2022-11-05T19:33:37.974Z,100306.28
2022-11-05T19:36:42.394Z,100314.06
2022-11-05T19:39:45.339Z,100312.22
2022-11-05T19:42:48.475Z,100331.31
2022-11-05T19:45:51.258Z,100324.28
2022-11-05T19:48:54.723Z,100325.31
2022-11-05T19:51:57.514Z,100332.19
2022-11-05T19:55:00.790Z,100334.25
2022-11-05T19:58:03.545Z,100339.63
2022-11-05T20:01:07.423Z,100341.91
2022-11-05T20:04:12.114Z,100351.53
2022-11-05T20:07:14.902Z,100347.94
2022-11-05T20:10:18.258Z,100359.25
2022-11-05T20:13:21.439Z,100365.31
2022-11-05T20:16:26.367Z,100360.00
2022-11-05T20:19:29.519Z,100363.72
2022-11-05T20:22:32.854Z,100372.81
2022-11-05T20:25:35.635Z,100379.44
2022-11-05T20:28:40.058Z,100371.78
2022-11-05T20:31:43.648Z,100378.94
2022-11-05T20:34:46.614Z,100385.56
2022-11-05T20:37:53.756Z,100382.44
2022-11-05T20:40:58.818Z,100384.12
2022-11-05T20:44:01.900Z,100389.37
2022-11-05T20:47:05.394Z,100393.75
2022-11-05T20:50:08.747Z,100391.12
2022-11-05T20:53:12.754Z,100398.97
2022-11-05T20:56:17.788Z,100395.28
2022-11-05T20:59:20.935Z,100388.09
2022-11-05T21:02:23.779Z,100401.69
2022-11-05T21:05:31.255Z,100408.50
2022-11-05T21:08:37.830Z,100399.72
2022-11-05T21:15:24.334Z,100403.37
2022-11-05T21:18:30.140Z,100409.41
2022-11-05T21:21:35.421Z,100404.47
2022-11-05T21:24:44.493Z,100412.22
2022-11-05T21:27:47.130Z,100404.34
2022-11-05T21:30:50.666Z,100410.31
2022-11-05T21:33:55.267Z,100400.84
2022-11-05T21:36:58.472Z,100403.53
2022-11-05T21:40:01.457Z,100415.94
2022-11-05T21:43:04.531Z,100411.38
2022-11-05T21:46:07.268Z,100413.41
2022-11-05T21:49:10.279Z,100411.69
2022-11-05T21:52:31.927Z,100413.31
2022-11-05T21:55:53.250Z,100414.13
2022-11-05T21:59:13.983Z,100415.88
2022-11-05T22:02:19.653Z,100418.69
2022-11-05T22:05:22.520Z,100415.12
2022-11-05T22:08:25.116Z,100415.19
2022-11-05T22:11:27.975Z,100420.31
2022-11-05T22:14:30.713Z,100418.69
2022-11-05T22:17:33.469Z,100416.25
2022-11-05T22:20:38.510Z,100420.50
2022-11-05T22:23:41.234Z,100417.72
2022-11-05T22:26:44.503Z,100417.72
2022-11-05T22:29:47.892Z,100420.44
2022-11-05T22:32:50.315Z,100417.06
2022-11-05T22:35:53.173Z,100416.16
2022-11-05T22:38:55.767Z,100417.94
2022-11-05T22:42:02.048Z,100419.28
2022-11-05T22:45:08.677Z,100420.44
2022-11-05T22:48:11.623Z,100420.31
2022-11-05T22:51:20.323Z,100427.34
2022-11-05T22:54:23.001Z,100429.94
2022-11-05T22:57:25.282Z,100427.28
2022-11-05T23:00:36.628Z,100426.38
2022-11-05T23:03:41.404Z,100435.03
2022-11-05T23:07:02.987Z,100429.31
2022-11-05T23:10:24.879Z,100436.97
2022-11-05T23:13:27.629Z,100430.78
2022-11-05T23:16:48.535Z,100431.69
2022-11-05T23:20:29.481Z,100437.72
2022-11-05T23:23:50.618Z,100432.41
2022-11-05T23:26:53.971Z,100437.59
2022-11-05T23:30:00.641Z,100436.75
2022-11-05T23:33:03.563Z,100449.84
2022-11-05T23:36:26.460Z,100446.38
2022-11-05T23:39:29.263Z,100447.31
2022-11-05T23:42:50.323Z,100454.31
2022-11-05T23:46:11.684Z,100457.78
2022-11-05T23:49:14.633Z,100457.00
2022-11-05T23:52:17.525Z,100460.41
2022-11-05T23:55:20.824Z,100456.94
2022-11-05T23:58:23.543Z,100452.56
